Questo sito fa uso di cookie per migliorare l’esperienza di navigazione degli utenti e per raccogliere informazioni sull’utilizzo del sito stesso. Proseguendo nella navigazione si accetta l’uso dei cookie; in caso contrario è possibile abbandonare il sito.

[source: ADDS]
METAR
LIPB 202150Z 00000KT CAVOK M03/M07 Q1017 RMK MON INVIS =
TAF LIPB 201700Z 2018/2118 VRB04KT 9999 FEW070 LIPC 210155Z 26004KT 9999 OVC035 04/02 Q1016 RMK OVC VIS MIN 9999 WIND THR11 /////KT WIND THR29 27004KT BLU =
TAF LIPC 210200Z 2103/2112 28005KT 9999 BKN030 BECMG 2104/2106 29010KT 8000 RA OVC030 LIPE 210220Z VRB01KT 8000 BKN025 03/01 Q1017 =
TAF LIPE 202300Z 2100/2124 VRB04KT 8000 BKN020 LIPH 210220Z AUTO 34003KT 9999 OVC072/// 00/M02 Q1017 =
TAF LIPH 202300Z 2100/2124 VRB04KT 9999 SCT040 LIPL 210155Z 31002KT 4000 BR NSC M02/M04 Q1017 RMK SKC VIS MIN 4000 WIND THR31 30002KT WIND THR13 33002KT GRN =
TAF LIPL 210200Z 2103/2112 VRB02KT 5000 SCT050 PROB30 TEMPO 2104/2107 3000 BR BECMG 2108/2110 8000 NSC LIPO 210150Z 34003KT CAVOK M02/M02 Q1017 =
TAF LIPO 202300Z 2100/2124 VRB05KT CAVOK LIPQ 210220Z AUTO 06005KT 9999 OVC089/// 04/M04 Q1016 =
TAF LIPQ 202300Z 2100/2124 VRB05KT 9999 SCT040 LIPR 210220Z AUTO 26009KT 9999 -DZ OVC022/// 03/01 Q1016 =
TAF LIPR 210200Z 2103/2112 29006KT 9999 SCT020 BKN035 TEMPO 2103/2112 RA LIPS 210155Z 00000KT 9999 SCT070 00/M01 Q1016 RMK SCT VIS MIN 9999 WIND THR26 00000KT WIND THR08 00000KT BLU =
TAF LIPS 210200Z 2103/2112 01003KT 9999 SCT070 PROB30 TEMPO 2104/2107 5000 BR LIPX 210220Z 32003KT 9999 SCT075 M01/M04 Q1017 =
TAF LIPX 210200Z 2103/2112 VRB05KT CAVOK LIPY 210150Z 21003KT 190V250 4000 -RA SCT008 BKN025 05/05 Q1015 =
TAF LIPY 202300Z 2100/2124 33007KT 9999 SCT030 TEMPO 2100/2118 4000 RA LIPZ 210220Z 35005KT CAVOK 02/M02 Q1017 NOSIG =
TAF LIPZ 202300Z 2100/2206 03007KT 9999 SCT020 LIVE 210155Z 04004KT CAVOK M10/M13 Q1012 RMK SKC VIS MIN 9999 =
LIVF 210155Z 25005KT 0200 -SN FG VV/// 01/00 Q1012 RMK MON INVIS VAL INVIS VIS MIN 0200 =
LIVP 210155Z 36008KT CAVOK M09/M15 Q1007 RMK SKC MON LIB VAL NIL VIS MIN 9999 =
LIVR 202355Z 12001KT CAVOK M08/M13 Q1007 RMK SKC MON LIB VIS MIN 9999 =
LIMC 210220Z 02004KT CAVOK M04/M05 Q1016 NOSIG =
TAF LIMC 202300Z 2100/2206 VRB05KT CAVOK LIME 210220Z 36005KT 8000 NSC M02/M04 Q1016 NOSIG =
TAF LIME 202300Z 2100/2124 VRB05KT 8000 NSC LIMF 210220Z 22002KT CAVOK M03/M03 Q1016 =
TAF LIMF 202300Z 2100/2124 VRB05KT CAVOK LIMH 210155Z /////KT CAVOK M17/M17 Q1004 RMK SKC MON LIB VAL NIL VIS MIN 9999 =
LIMJ 210220Z 04006KT 350V100 9999 FEW050 06/M02 Q1015 =
TAF LIMJ 202300Z 2100/2124 01010KT CAVOK LIMK 210155Z 36002KT CAVOK 00/M04 Q1013 RMK SKC VAL NIL VIS MIN 9999 =
LIML 210220Z 03002KT 6000 MIFG NSC M02/M02 Q1017 NOSIG =
TAF LIML 202300Z 2100/2124 VRB05KT CAVOK LIMU 210155Z 05002KT CAVOK 05/M03 Q1012 RMK FEW FEW200 QUK / QUL / VIS MAR 20 KM VIS MIN 9999 =
TAF
TAF LIPB 201700Z 2018/2118 VRB04KT 9999 FEW070 =
TAF LIPC 210200Z 2103/2112 28005KT 9999 BKN030 BECMG 2104/2106 29010KT 8000 RA OVC030 =
TAF LIPE 202300Z 2100/2124 VRB04KT 8000 BKN020 =
TAF LIPH 202300Z 2100/2124 VRB04KT 9999 SCT040 =
TAF LIPL 210200Z 2103/2112 VRB02KT 5000 SCT050 PROB30 TEMPO 2104/2107 3000 BR BECMG 2108/2110 8000 NSC =
TAF LIPO 202300Z 2100/2124 VRB05KT CAVOK =
TAF LIPQ 202300Z 2100/2124 VRB05KT 9999 SCT040 =
TAF LIPR 210200Z 2103/2112 29006KT 9999 SCT020 BKN035 TEMPO 2103/2112 RA =
TAF LIPS 210200Z 2103/2112 01003KT 9999 SCT070 PROB30 TEMPO 2104/2107 5000 BR =
TAF LIPX 210200Z 2103/2112 VRB05KT CAVOK =
TAF LIPY 202300Z 2100/2124 33007KT 9999 SCT030 TEMPO 2100/2118 4000 RA =
TAF LIPZ 202300Z 2100/2206 03007KT 9999 SCT020 =
TAF LIMC 202300Z 2100/2206 VRB05KT CAVOK =
TAF LIME 202300Z 2100/2124 VRB05KT 8000 NSC =
TAF LIMF 202300Z 2100/2124 VRB05KT CAVOK =
TAF LIMJ 202300Z 2100/2124 01010KT CAVOK =
TAF LIML 202300Z 2100/2124 VRB05KT CAVOK =
SR / SS: 06:44 / 16:03 UTC (Effemeridi Aeroporto di Padova - LIPU 2019-01-21)

Immagini e previsioni meteo non aeronautiche

 

 

Immagini dal Radar Meteorologico del sito ARPAV. Orario UTC.

 

Immagine dal sito Meteo Sat Online

 

Legenda codici ICAO del nord Italia

 

In ordine di codice   In ordine di località
LIMC
Milano / Malpensa LIMG Albenga
LIME Bergamo / Orio Al Serio LIPA Aviano
LIMF Torino / Caselle LIME Bergamo / Orio Al Serio
LIMG Albenga LIPE Bologna / Borgo Panigale
LIMH Pian Rosa LIPB Bolzano
LIMJ Genova / Sestri LIPL Brescia / Ghedi
LIMK Torino / Bric Della Croce LIPO Brescia / Montichiari
LIML Milano / Linate LIMU Capo Mele
LIMN Novara / Cameri LIPC Cervia
LIMO Monte Bisbino LIVD Dobbiaco
LIMS Piacenza LIPP Dova Area Control Center
LIMT Passo Della Cisa LIPY Falconara
LIMU Capo Mele LIPF Ferrara
LIMV Passo Dei Giovi LIPK Forli
LIMY Monte Malanotte LIVF Frontone
LIPA Aviano LIMJ Genova / Sestri
LIPB Bolzano LIML Milano / Linate
LIPC Cervia
LIMC
Milano / Malpensa
LIPD Udine / Campoformido LIMO Monte Bisbino
LIPE Bologna / Borgo Panigale LIVC Monte Cimone
LIPF Ferrara LIMY Monte Malanotte
LIPH Treviso / S. Angelo LIMN Novara / Cameri
LIPI Udine / Rivolto LIPU Padova
LIPK Forli LIVP Paganella
LIPL Brescia / Ghedi LIMV Passo Dei Giovi
LIPO Brescia / Montichiari LIMT Passo Della Cisa
LIPP Dova Area Control Center LIVR Passo Rolle
LIPQ Ronchi Dei Legionari LIMS Piacenza
LIPR Rimini LIMH Pian Rosa
LIPS Treviso / Istrana LIVM Punta Marina
LIPT Vicenza LIVE Resia Pass
LIPU Padova LIPR Rimini
LIPX Verona / Villafranca LIPQ Ronchi Dei Legionari
LIPY Falconara LIVO Tarvisio
LIPZ Venezia / Tessera LIMK Torino / Bric Della Croce
LIVC Monte Cimone LIMF Torino / Caselle
LIVD Dobbiaco LIPS Treviso / Istrana
LIVE Resia Pass LIPH Treviso / S. Angelo
LIVF Frontone LIVT
Trieste
LIVM Punta Marina LIPD Udine / Campoformido
LIVO Tarvisio LIPI Udine / Rivolto
LIVP Paganella LIPZ Venezia / Tessera
LIVR Passo Rolle LIPX Verona / Villafranca
LIVT Trieste LIPT Vicenza

 

 

 

 

 

 

 

 

 

 

 

 

 

 

 

 

 

 

 

 

 

 

 

 

 

 

 

 

 

 

 

 

 

 

 

 

 

 

 

 

 

 

 

 

 

 

 

 

 

 

 

 

 

 

 

 

 

 

 

 

L'Aeroclub di Padova si limita a riportare informazioni fornite da terze parti, e non ha quindi alcuna responsabilità sul contenuto. Per la pianificazione dei propri voli si raccomanda l'utilizzo delle fonti ufficiali.

Copyright 2011. Free joomla templates | © Aeroclub Padova - Scuola di Volo, Ditta di manutenzione, CAMO Via Sorio, 89 - 35141 Padova Tel. 049 8718599 Fax 049 8717699 info@aeroclubpadova.it